createdAt,value
2022-08-28T00:02:17.546Z,3.50
2022-08-28T00:04:45.937Z,3.33
2022-08-28T00:07:14.378Z,3.53
2022-08-28T00:09:44.023Z,3.80
2022-08-28T00:12:13.096Z,2.80
2022-08-28T00:14:41.467Z,3.20
2022-08-28T00:17:09.776Z,3.10
2022-08-28T00:19:38.927Z,2.77
2022-08-28T00:22:07.559Z,3.30
2022-08-28T00:24:36.895Z,3.10
2022-08-28T00:27:24.429Z,3.03
2022-08-28T00:29:52.871Z,2.90
2022-08-28T00:32:22.364Z,3.70
2022-08-28T00:34:50.896Z,2.60
2022-08-28T00:37:19.251Z,4.10
2022-08-28T00:39:53.179Z,3.70
2022-08-28T00:42:23.289Z,3.23
2022-08-28T00:44:51.980Z,3.30
2022-08-28T00:47:20.525Z,3.60
2022-08-28T00:49:53.868Z,3.10
2022-08-28T00:52:24.263Z,2.90
2022-08-28T00:54:59.403Z,3.70
2022-08-28T00:57:35.145Z,3.30
2022-08-28T01:00:07.805Z,2.63
2022-08-28T01:02:36.159Z,2.57
2022-08-28T01:05:07.584Z,4.10
2022-08-28T01:07:36.206Z,2.47
2022-08-28T01:10:11.273Z,3.80
2022-08-28T01:12:41.731Z,3.37
2022-08-28T01:15:14.891Z,2.67
2022-08-28T01:17:49.185Z,2.50
2022-08-28T01:20:22.295Z,2.83
2022-08-28T01:23:00.238Z,2.83
2022-08-28T01:25:34.631Z,2.60
2022-08-28T01:28:07.204Z,2.87
2022-08-28T01:30:36.363Z,2.33
2022-08-28T01:33:04.803Z,3.77
2022-08-28T01:35:36.620Z,2.60
2022-08-28T01:38:05.550Z,2.93
2022-08-28T01:40:40.806Z,3.10
2022-08-28T01:43:11.843Z,2.47
2022-08-28T01:45:40.972Z,2.63
2022-08-28T01:48:10.079Z,3.10
2022-08-28T01:50:39.477Z,3.30
2022-08-28T01:53:10.008Z,2.40
2022-08-28T01:55:43.672Z,2.70
2022-08-28T01:58:13.369Z,2.90
2022-08-28T02:00:42.189Z,2.60
2022-08-28T02:03:12.825Z,2.63
2022-08-28T02:05:41.700Z,2.20
2022-08-28T02:08:10.486Z,3.00
2022-08-28T02:10:43.625Z,2.60
2022-08-28T02:13:13.566Z,3.03
2022-08-28T02:15:44.419Z,2.80
2022-08-28T02:18:14.422Z,2.87
2022-08-28T02:20:43.319Z,2.77
2022-08-28T02:23:12.071Z,2.43
2022-08-28T02:25:42.169Z,2.40
2022-08-28T02:28:11.141Z,2.37
2022-08-28T02:30:41.022Z,2.23
2022-08-28T02:33:09.396Z,2.93
2022-08-28T02:35:40.288Z,2.27
2022-08-28T02:38:09.248Z,3.00
2022-08-28T02:40:38.115Z,2.83
2022-08-28T02:43:08.062Z,2.70
2022-08-28T02:45:36.734Z,3.50
2022-08-28T02:48:05.725Z,3.27
2022-08-28T02:50:43.926Z,2.90
2022-08-28T02:53:13.330Z,2.50
2022-08-28T02:55:42.080Z,2.77
2022-08-28T02:58:11.810Z,2.70
2022-08-28T03:00:41.400Z,2.97
2022-08-28T03:03:09.709Z,3.10
2022-08-28T03:05:38.158Z,2.70
2022-08-28T03:08:06.704Z,2.90
2022-08-28T03:10:35.234Z,3.17
2022-08-28T03:13:03.583Z,3.47
2022-08-28T03:15:33.317Z,3.13
2022-08-28T03:18:01.668Z,2.40
2022-08-28T03:20:36.579Z,2.77
2022-08-28T03:23:22.887Z,3.10
2022-08-28T03:25:51.356Z,2.67
2022-08-28T03:28:19.969Z,3.30
2022-08-28T03:30:50.725Z,2.40
2022-08-28T03:33:20.889Z,3.50
2022-08-28T03:35:49.548Z,3.30
2022-08-28T03:38:18.241Z,2.90
2022-08-28T03:40:48.368Z,2.80
2022-08-28T03:43:20.399Z,3.80
2022-08-28T03:46:02.352Z,3.00
2022-08-28T03:48:33.476Z,3.10
2022-08-28T03:51:02.690Z,3.30
2022-08-28T03:53:31.521Z,3.20
2022-08-28T03:56:00.127Z,2.80
2022-08-28T03:58:28.866Z,3.10
2022-08-28T04:00:58.544Z,3.23
2022-08-28T04:03:27.050Z,3.40
2022-08-28T04:05:55.346Z,3.50
2022-08-28T04:08:23.987Z,3.13
2022-08-28T04:10:53.976Z,2.70
2022-08-28T04:13:23.302Z,3.70
2022-08-28T04:16:02.622Z,2.83
2022-08-28T04:18:35.600Z,3.50
2022-08-28T04:21:07.985Z,2.90
2022-08-28T04:23:38.139Z,3.10
2022-08-28T04:26:07.179Z,2.70
2022-08-28T04:28:36.544Z,3.00
2022-08-28T04:31:07.984Z,2.83
2022-08-28T04:33:37.410Z,3.30
2022-08-28T04:36:09.255Z,3.03
2022-08-28T04:38:41.660Z,3.13
2022-08-28T04:41:15.147Z,3.23
2022-08-28T04:43:44.000Z,2.87
2022-08-28T04:46:16.057Z,2.50
2022-08-28T04:48:44.799Z,3.20
2022-08-28T04:51:15.260Z,3.80
2022-08-28T04:53:44.693Z,3.00
2022-08-28T04:56:15.327Z,3.00
2022-08-28T04:58:45.538Z,2.87
2022-08-28T05:01:19.695Z,3.23
2022-08-28T05:03:49.295Z,2.90
2022-08-28T05:06:18.195Z,3.93
2022-08-28T05:08:46.464Z,2.97
2022-08-28T05:11:32.840Z,3.07
2022-08-28T05:14:05.239Z,3.23
2022-08-28T05:16:40.906Z,3.50
2022-08-28T05:19:09.364Z,3.50
2022-08-28T05:21:37.740Z,3.10
2022-08-28T05:24:07.442Z,2.77
2022-08-28T05:26:38.904Z,3.83
2022-08-28T05:29:10.390Z,3.33
2022-08-28T05:31:42.197Z,3.60
2022-08-28T05:34:10.745Z,3.30
2022-08-28T05:36:40.359Z,3.07
2022-08-28T05:39:11.792Z,3.60
2022-08-28T05:41:43.678Z,3.50
2022-08-28T05:44:14.875Z,3.33
2022-08-28T05:46:48.331Z,3.50
2022-08-28T05:49:19.383Z,4.10
2022-08-28T05:51:48.775Z,3.40
2022-08-28T05:54:18.508Z,3.47
2022-08-28T05:56:47.755Z,3.43
2022-08-28T05:59:16.894Z,3.60
2022-08-28T06:01:49.202Z,3.63
2022-08-28T06:04:22.980Z,3.37
2022-08-28T06:06:51.820Z,3.57
2022-08-28T06:09:28.025Z,3.97
2022-08-28T06:11:58.726Z,3.47
2022-08-28T06:14:27.993Z,3.77
2022-08-28T06:16:58.506Z,3.27
2022-08-28T06:19:30.055Z,3.57
2022-08-28T06:22:07.167Z,3.60
2022-08-28T06:24:36.741Z,3.43
2022-08-28T06:27:05.594Z,3.70
2022-08-28T06:29:34.040Z,3.73
2022-08-28T06:32:05.577Z,3.57
2022-08-28T06:34:34.201Z,4.07
2022-08-28T06:37:02.511Z,3.80
2022-08-28T06:39:30.933Z,3.40
2022-08-28T06:41:59.215Z,3.40
2022-08-28T06:44:27.956Z,4.60
2022-08-28T06:46:57.229Z,3.30
2022-08-28T06:49:26.924Z,3.20
2022-08-28T06:51:56.221Z,2.50
2022-08-28T06:54:24.826Z,3.30
2022-08-28T06:56:54.213Z,2.70
2022-08-28T06:59:22.633Z,2.33
2022-08-28T07:01:53.587Z,2.43
2022-08-28T07:04:21.961Z,2.70
2022-08-28T07:06:54.620Z,2.40
2022-08-28T07:09:24.492Z,2.77
2022-08-28T07:11:53.611Z,2.67
2022-08-28T07:14:21.991Z,2.40
2022-08-28T07:16:51.934Z,2.13
2022-08-28T07:19:20.377Z,1.57
2022-08-28T07:21:49.014Z,1.90
2022-08-28T07:24:19.260Z,1.80
2022-08-28T07:26:48.930Z,1.87
2022-08-28T07:29:18.406Z,1.30
2022-08-28T07:31:51.842Z,1.20
2022-08-28T07:34:26.810Z,2.37
2022-08-28T07:36:58.160Z,1.50
2022-08-28T07:39:27.954Z,2.00
2022-08-28T07:41:56.287Z,1.33
2022-08-28T07:44:42.454Z,1.77
2022-08-28T07:47:11.835Z,1.33
2022-08-28T07:49:41.511Z,1.33
2022-08-28T07:52:11.957Z,1.33
2022-08-28T07:54:41.696Z,1.70
2022-08-28T07:57:11.289Z,1.63
2022-08-28T07:59:41.081Z,1.40
2022-08-28T08:02:12.342Z,1.43
2022-08-28T08:04:41.171Z,1.70
2022-08-28T08:07:09.966Z,1.50
2022-08-28T08:09:43.118Z,1.13
2022-08-28T08:12:13.732Z,1.90
2022-08-28T08:14:44.004Z,1.50
2022-08-28T08:17:13.196Z,1.30
2022-08-28T08:19:41.802Z,1.60
2022-08-28T08:22:10.051Z,1.30
2022-08-28T08:24:38.413Z,1.40
2022-08-28T08:27:08.017Z,1.20
2022-08-28T08:29:38.692Z,1.07
2022-08-28T08:32:09.716Z,1.23
2022-08-28T08:34:41.399Z,1.63
2022-08-28T08:37:11.152Z,1.40
2022-08-28T08:39:40.387Z,1.37
2022-08-28T08:42:22.367Z,1.70
2022-08-28T08:44:52.261Z,1.20
2022-08-28T08:47:26.429Z,1.50
2022-08-28T08:49:58.671Z,1.13
2022-08-28T08:52:38.669Z,1.30
2022-08-28T08:55:20.155Z,1.30
2022-08-28T08:57:58.638Z,1.23
2022-08-28T09:00:27.415Z,1.70
2022-08-28T09:03:05.852Z,1.40
2022-08-28T09:05:50.351Z,1.20
2022-08-28T09:08:36.263Z,1.20
2022-08-28T09:11:16.486Z,1.60
2022-08-28T09:13:56.276Z,1.30
2022-08-28T09:16:32.562Z,1.20
2022-08-28T09:19:02.244Z,1.30
2022-08-28T09:21:35.185Z,1.23
2022-08-28T09:24:11.069Z,1.30
2022-08-28T09:26:41.515Z,1.50
2022-08-28T09:29:21.004Z,1.27
2022-08-28T09:31:50.295Z,1.53
2022-08-28T09:34:29.885Z,1.43
2022-08-28T09:36:59.622Z,1.60
2022-08-28T09:39:31.163Z,1.17
2022-08-28T09:42:34.847Z,1.33
2022-08-28T09:45:16.367Z,1.30
2022-08-28T09:47:50.564Z,1.37
2022-08-28T09:50:35.728Z,1.57
2022-08-28T09:53:21.800Z,1.30
2022-08-28T09:56:18.132Z,1.10
2022-08-28T09:58:51.707Z,1.60
2022-08-28T10:01:45.468Z,1.20
2022-08-28T10:04:38.507Z,1.40
2022-08-28T10:07:16.379Z,1.30
2022-08-28T10:09:55.521Z,1.40
2022-08-28T10:12:42.574Z,1.40
2022-08-28T10:15:19.367Z,1.40
2022-08-28T10:18:09.341Z,1.40
2022-08-28T10:20:51.337Z,1.43
2022-08-28T10:23:31.150Z,1.37
2022-08-28T10:26:17.445Z,1.37
2022-08-28T10:29:01.241Z,1.23
2022-08-28T10:31:41.362Z,1.20
2022-08-28T10:34:31.927Z,1.30
2022-08-28T10:37:12.563Z,1.17
2022-08-28T10:39:53.012Z,1.30
2022-08-28T10:42:35.991Z,1.60
2022-08-28T10:45:11.491Z,1.40
2022-08-28T10:47:46.003Z,1.50
2022-08-28T10:50:23.131Z,1.53
2022-08-28T10:52:58.432Z,1.47
2022-08-28T10:55:34.715Z,1.30
2022-08-28T10:58:24.602Z,1.40
2022-08-28T11:00:56.848Z,1.30
2022-08-28T11:03:35.737Z,1.27
2022-08-28T11:06:14.724Z,1.20
2022-08-28T11:08:45.291Z,1.20
2022-08-28T11:11:15.909Z,1.27
2022-08-28T11:13:59.853Z,1.30
2022-08-28T11:16:41.324Z,1.43
2022-08-28T11:19:43.955Z,1.00
2022-08-28T11:22:19.816Z,1.17
2022-08-28T11:25:04.421Z,1.23
2022-08-28T11:27:39.366Z,1.40
2022-08-28T11:30:33.466Z,1.30
2022-08-28T11:33:31.217Z,1.20
2022-08-28T11:36:00.022Z,1.10
2022-08-28T11:39:18.864Z,1.20
2022-08-28T11:42:32.362Z,1.20
2022-08-28T11:45:01.750Z,1.20
2022-08-28T11:47:56.216Z,1.10
2022-08-28T11:50:31.631Z,1.27
2022-08-28T11:53:39.404Z,1.20
2022-08-28T11:56:36.947Z,1.40
2022-08-28T11:59:35.061Z,1.20
2022-08-28T12:02:55.623Z,1.00
2022-08-28T12:05:58.047Z,1.17
2022-08-28T12:09:12.961Z,1.40
2022-08-28T12:12:02.699Z,1.00
2022-08-28T12:15:10.608Z,1.00
2022-08-28T12:17:52.391Z,1.10
2022-08-28T12:20:49.174Z,1.00
2022-08-28T12:23:42.011Z,1.03
2022-08-28T12:26:21.695Z,1.10
2022-08-28T12:28:55.896Z,1.10
2022-08-28T12:32:15.120Z,1.33
2022-08-28T12:34:53.453Z,1.13
2022-08-28T12:37:51.960Z,1.17
2022-08-28T12:40:24.857Z,1.13
2022-08-28T12:42:58.211Z,1.20
2022-08-28T12:45:38.233Z,1.17
2022-08-28T12:48:17.866Z,1.17
2022-08-28T12:50:46.310Z,1.00
2022-08-28T12:53:18.953Z,1.03
2022-08-28T12:55:47.947Z,1.20
2022-08-28T12:58:31.585Z,1.07
2022-08-28T13:01:07.111Z,1.13
2022-08-28T13:03:41.917Z,1.63
2022-08-28T13:06:11.164Z,1.30
2022-08-28T13:08:39.640Z,1.30
2022-08-28T13:11:09.151Z,1.60
2022-08-28T13:13:45.186Z,1.30
2022-08-28T13:16:34.870Z,0.93
2022-08-28T13:19:28.426Z,1.00
2022-08-28T13:22:00.416Z,1.10
2022-08-28T13:24:40.879Z,0.97
2022-08-28T13:27:24.814Z,1.17
2022-08-28T13:30:01.282Z,1.20
2022-08-28T13:32:34.011Z,1.10
2022-08-28T13:35:33.737Z,1.07
2022-08-28T13:38:04.654Z,1.10
2022-08-28T13:40:58.497Z,1.30
2022-08-28T13:43:29.676Z,1.00
2022-08-28T13:45:58.701Z,1.00
2022-08-28T13:48:29.447Z,1.20
2022-08-28T13:51:04.365Z,1.10
2022-08-28T13:53:36.243Z,1.07
2022-08-28T13:56:05.104Z,1.10
2022-08-28T13:58:33.445Z,1.30
2022-08-28T14:01:02.537Z,1.07
2022-08-28T14:03:38.290Z,0.90
2022-08-28T14:06:11.934Z,1.20
2022-08-28T14:08:41.383Z,1.10
2022-08-28T14:11:12.939Z,1.10
2022-08-28T14:13:46.913Z,1.03
2022-08-28T14:16:25.687Z,1.00
2022-08-28T14:18:55.527Z,1.00
2022-08-28T14:21:25.245Z,1.17
2022-08-28T14:23:53.626Z,1.13
2022-08-28T14:26:21.969Z,0.97
2022-08-28T14:28:50.527Z,1.17
2022-08-28T14:31:19.089Z,1.20
2022-08-28T14:33:47.897Z,0.97
2022-08-28T14:36:21.000Z,1.10
2022-08-28T14:38:53.837Z,1.37
2022-08-28T14:41:23.786Z,1.30
2022-08-28T14:43:52.287Z,1.13
2022-08-28T14:46:23.247Z,1.50
2022-08-28T14:48:52.630Z,1.00
2022-08-28T14:51:22.457Z,1.20
2022-08-28T14:53:51.380Z,1.30
2022-08-28T14:56:21.035Z,1.00
2022-08-28T14:58:49.711Z,1.20
2022-08-28T15:01:26.566Z,1.10
2022-08-28T15:04:11.679Z,1.17
2022-08-28T15:06:42.505Z,1.20
2022-08-28T15:09:11.603Z,1.40
2022-08-28T15:11:42.994Z,1.13
2022-08-28T15:14:12.205Z,1.20
2022-08-28T15:16:45.372Z,1.20
2022-08-28T15:19:15.989Z,0.90
2022-08-28T15:21:49.506Z,1.10
2022-08-28T15:24:20.437Z,1.53
2022-08-28T15:26:49.103Z,1.33
2022-08-28T15:29:17.892Z,1.20
2022-08-28T15:31:48.982Z,1.20
2022-08-28T15:34:20.930Z,1.43
2022-08-28T15:36:55.307Z,1.50
2022-08-28T15:39:42.859Z,1.60
2022-08-28T15:42:11.877Z,1.00
2022-08-28T15:44:40.550Z,1.30
2022-08-28T15:47:10.414Z,1.00
2022-08-28T15:49:46.598Z,1.50
2022-08-28T15:52:20.951Z,1.20
2022-08-28T15:54:50.149Z,1.10
2022-08-28T15:57:18.765Z,1.27
2022-08-28T15:59:49.709Z,1.60
2022-08-28T16:02:20.524Z,1.30
2022-08-28T16:04:49.433Z,1.30
2022-08-28T16:07:20.915Z,1.47
2022-08-28T16:09:49.828Z,1.13
2022-08-28T16:12:18.610Z,1.40
2022-08-28T16:14:47.062Z,1.40
2022-08-28T16:17:15.363Z,1.20
2022-08-28T16:19:44.226Z,1.20
2022-08-28T16:22:15.906Z,1.27
2022-08-28T16:24:46.543Z,1.23
2022-08-28T16:27:15.855Z,1.57
2022-08-28T16:29:45.266Z,1.30
2022-08-28T16:32:14.007Z,1.20
2022-08-28T16:34:44.599Z,1.60
2022-08-28T16:37:14.309Z,1.10
2022-08-28T16:39:49.611Z,1.17
2022-08-28T16:42:17.974Z,1.40
2022-08-28T16:44:46.277Z,1.40
2022-08-28T16:47:14.993Z,1.37
2022-08-28T16:49:43.293Z,1.37
2022-08-28T16:52:11.726Z,1.10
2022-08-28T16:54:48.365Z,1.17
2022-08-28T16:57:19.534Z,1.53
2022-08-28T16:59:53.000Z,1.20
2022-08-28T17:02:25.351Z,1.37
2022-08-28T17:04:55.437Z,1.10
2022-08-28T17:07:23.746Z,1.30
2022-08-28T17:09:52.482Z,1.23
2022-08-28T17:12:22.448Z,1.20
2022-08-28T17:14:56.648Z,1.30
2022-08-28T17:17:25.375Z,1.00
2022-08-28T17:19:53.898Z,1.47
2022-08-28T17:22:33.376Z,1.50
2022-08-28T17:25:03.406Z,1.37
2022-08-28T17:27:33.271Z,1.27
2022-08-28T17:30:04.665Z,1.40
2022-08-28T17:32:33.491Z,1.20
2022-08-28T17:35:05.504Z,1.40
2022-08-28T17:37:33.976Z,1.50
2022-08-28T17:40:02.399Z,1.50
2022-08-28T17:42:32.235Z,1.27
2022-08-28T17:45:00.693Z,1.10
2022-08-28T17:47:31.092Z,1.30
2022-08-28T17:50:00.760Z,1.20
2022-08-28T17:52:30.141Z,1.10
2022-08-28T17:54:58.723Z,1.30
2022-08-28T17:57:30.279Z,1.40
2022-08-28T18:00:02.068Z,1.47
2022-08-28T18:02:40.473Z,1.60
2022-08-28T18:05:11.536Z,1.10
2022-08-28T18:07:40.067Z,1.47
2022-08-28T18:10:11.751Z,1.27
2022-08-28T18:12:41.041Z,1.30
2022-08-28T18:15:13.610Z,1.30
2022-08-28T18:17:43.987Z,1.60
2022-08-28T18:20:13.528Z,1.27
2022-08-28T18:22:41.833Z,1.30
2022-08-28T18:25:31.253Z,1.33
2022-08-28T18:27:59.593Z,1.17
2022-08-28T18:30:29.785Z,1.40
2022-08-28T18:32:58.604Z,1.30
2022-08-28T18:35:31.976Z,1.20
2022-08-28T18:38:01.664Z,1.40
2022-08-28T18:40:31.341Z,1.20
2022-08-28T18:43:00.213Z,1.73
2022-08-28T18:45:31.457Z,1.60
2022-08-28T18:48:00.962Z,1.10
2022-08-28T18:50:30.759Z,1.47
2022-08-28T18:53:00.940Z,1.30
2022-08-28T18:55:32.108Z,1.33
2022-08-28T18:58:02.397Z,1.43
2022-08-28T19:00:33.079Z,1.47
2022-08-28T19:03:01.429Z,1.30
2022-08-28T19:05:30.297Z,1.43
2022-08-28T19:08:01.766Z,1.10
2022-08-28T19:10:34.692Z,1.20
2022-08-28T19:13:04.459Z,1.20
2022-08-28T19:15:35.676Z,1.67
2022-08-28T19:18:07.907Z,1.20
2022-08-28T19:20:36.765Z,1.40
2022-08-28T19:23:05.045Z,1.30
2022-08-28T19:25:33.825Z,1.60
2022-08-28T19:28:03.102Z,1.30
2022-08-28T19:30:37.448Z,1.50
2022-08-28T19:33:06.672Z,1.10
2022-08-28T19:35:34.979Z,1.57
2022-08-28T19:38:03.661Z,1.40
2022-08-28T19:40:33.581Z,1.20
2022-08-28T19:43:02.030Z,1.57
2022-08-28T19:45:30.297Z,1.37
2022-08-28T19:48:01.114Z,1.10
2022-08-28T19:50:29.476Z,1.33
2022-08-28T19:52:57.926Z,1.60
2022-08-28T19:55:28.829Z,1.40
2022-08-28T19:57:57.632Z,1.60
2022-08-28T20:00:29.679Z,1.53
2022-08-28T20:03:00.068Z,1.27
2022-08-28T20:05:28.544Z,1.80
2022-08-28T20:07:56.879Z,1.57
2022-08-28T20:10:27.854Z,1.70
2022-08-28T20:12:56.289Z,1.73
2022-08-28T20:15:25.029Z,1.40
2022-08-28T20:17:53.292Z,1.40
2022-08-28T20:20:27.982Z,1.40
2022-08-28T20:22:58.135Z,1.50
2022-08-28T20:25:27.805Z,1.57
2022-08-28T20:28:01.446Z,1.60
2022-08-28T20:30:30.542Z,1.50
2022-08-28T20:33:01.001Z,1.50
2022-08-28T20:35:30.938Z,1.60
2022-08-28T20:37:59.597Z,1.50
2022-08-28T20:40:28.434Z,1.30
2022-08-28T20:42:57.207Z,1.50
2022-08-28T20:45:25.884Z,1.60
2022-08-28T20:47:54.190Z,1.33
2022-08-28T20:50:22.596Z,1.40
2022-08-28T20:52:52.226Z,2.07
2022-08-28T20:55:20.772Z,1.50
2022-08-28T20:57:49.018Z,2.07
2022-08-28T21:00:18.400Z,1.70
2022-08-28T21:02:46.706Z,1.80
2022-08-28T21:05:16.239Z,1.40
2022-08-28T21:07:44.562Z,2.10
2022-08-28T21:10:14.397Z,1.60
2022-08-28T21:12:42.805Z,1.60
2022-08-28T21:15:13.478Z,1.60
2022-08-28T21:17:42.308Z,1.20
2022-08-28T21:20:14.803Z,1.53
2022-08-28T21:22:44.201Z,1.70
2022-08-28T21:25:15.398Z,1.60
2022-08-28T21:27:44.590Z,1.70
2022-08-28T21:30:17.305Z,1.50
2022-08-28T21:32:45.782Z,1.50
2022-08-28T21:35:15.037Z,1.77
2022-08-28T21:37:45.068Z,1.60
2022-08-28T21:40:16.201Z,1.30
2022-08-28T21:42:44.676Z,1.63
2022-08-28T21:45:14.371Z,1.67
2022-08-28T21:47:43.480Z,1.57
2022-08-28T21:50:12.719Z,1.73
2022-08-28T21:52:41.355Z,1.60
2022-08-28T21:55:15.318Z,1.33
2022-08-28T21:57:44.604Z,1.97
2022-08-28T22:00:18.342Z,1.57
2022-08-28T22:02:47.788Z,1.50
2022-08-28T22:05:17.989Z,1.93
2022-08-28T22:07:46.450Z,2.00
2022-08-28T22:10:16.404Z,1.90
2022-08-28T22:12:44.808Z,1.60
2022-08-28T22:15:13.444Z,1.93
2022-08-28T22:17:41.715Z,1.50
2022-08-28T22:20:11.173Z,2.13
2022-08-28T22:22:57.148Z,1.87
2022-08-28T22:25:27.048Z,2.47
2022-08-28T22:27:55.370Z,2.03
2022-08-28T22:30:24.150Z,2.40
2022-08-28T22:32:53.376Z,2.27
2022-08-28T22:35:21.751Z,2.10
2022-08-28T22:37:50.349Z,1.87
2022-08-28T22:40:18.837Z,1.87
2022-08-28T22:42:50.472Z,2.27
2022-08-28T22:45:19.354Z,2.33
2022-08-28T22:47:49.043Z,2.10
2022-08-28T22:50:18.230Z,2.30
2022-08-28T22:52:48.352Z,2.23
2022-08-28T22:55:18.745Z,2.40
2022-08-28T22:57:49.231Z,2.20
2022-08-28T23:00:23.891Z,2.00
2022-08-28T23:02:54.423Z,2.30
2022-08-28T23:05:24.401Z,2.50
2022-08-28T23:07:52.722Z,2.23
2022-08-28T23:10:36.745Z,2.87
2022-08-28T23:13:14.333Z,2.10
2022-08-28T23:15:43.657Z,2.00
2022-08-28T23:18:12.330Z,2.13
2022-08-28T23:20:40.598Z,2.23
2022-08-28T23:23:08.944Z,2.00
2022-08-28T23:25:37.531Z,2.13
2022-08-28T23:28:06.678Z,1.87
2022-08-28T23:30:38.799Z,2.10
2022-08-28T23:33:08.483Z,2.70
2022-08-28T23:35:37.646Z,2.50
2022-08-28T23:38:06.493Z,2.97
2022-08-28T23:40:35.014Z,2.00
2022-08-28T23:43:04.130Z,2.30
2022-08-28T23:45:32.626Z,2.17
2022-08-28T23:48:03.038Z,2.40
2022-08-28T23:50:33.928Z,2.50
2022-08-28T23:53:03.201Z,2.70
2022-08-28T23:55:33.355Z,2.30
2022-08-28T23:58:01.885Z,2.80
